createdAt,value
2022-10-19T00:01:12.648Z,14.24
2022-10-19T00:06:17.348Z,14.11
2022-10-19T00:11:18.918Z,14.06
2022-10-19T00:16:21.535Z,13.98
2022-10-19T00:21:23.045Z,14.28
2022-10-19T00:26:26.183Z,14.19
2022-10-19T00:31:28.088Z,13.87
2022-10-19T00:36:34.887Z,14.01
2022-10-19T00:41:37.461Z,13.86
2022-10-19T00:46:40.871Z,13.82
2022-10-19T00:51:45.410Z,13.73
2022-10-19T00:56:48.936Z,13.67
2022-10-19T01:01:50.861Z,13.81
2022-10-19T01:06:53.829Z,13.64
2022-10-19T01:12:06.463Z,13.70
2022-10-19T01:17:18.433Z,13.60
2022-10-19T01:22:44.666Z,13.53
2022-10-19T01:28:06.354Z,13.38
2022-10-19T01:33:29.271Z,13.24
2022-10-19T01:38:58.619Z,13.11
2022-10-19T01:44:16.756Z,13.19
2022-10-19T01:49:25.439Z,12.92
2022-10-19T01:54:30.602Z,13.20
2022-10-19T01:59:33.114Z,13.29
2022-10-19T02:04:35.213Z,13.18
2022-10-19T02:09:36.847Z,13.35
2022-10-19T02:14:44.494Z,13.23
2022-10-19T02:19:45.972Z,12.99
2022-10-19T02:24:47.479Z,13.12
2022-10-19T02:29:49.075Z,13.02
2022-10-19T02:34:50.594Z,12.99
2022-10-19T02:39:52.139Z,13.23
2022-10-19T02:44:58.669Z,13.19
2022-10-19T02:50:00.390Z,12.99
2022-10-19T02:55:01.964Z,12.98
2022-10-19T03:00:06.177Z,13.10
2022-10-19T03:05:08.826Z,12.89
2022-10-19T03:10:10.380Z,12.90
2022-10-19T03:15:15.807Z,13.05
2022-10-19T03:20:17.382Z,12.96
2022-10-19T03:25:19.027Z,12.63
2022-10-19T03:30:20.494Z,12.93
2022-10-19T03:35:21.973Z,13.06
2022-10-19T03:40:23.453Z,13.04
2022-10-19T03:45:24.964Z,12.75
2022-10-19T03:50:26.495Z,12.81
2022-10-19T03:55:27.992Z,12.80
2022-10-19T04:00:29.498Z,12.69
2022-10-19T04:05:31.001Z,12.66
2022-10-19T04:10:32.548Z,12.74
2022-10-19T04:15:34.057Z,12.96
2022-10-19T04:20:35.552Z,12.97
2022-10-19T04:25:37.067Z,12.95
2022-10-19T04:30:38.558Z,12.68
2022-10-19T04:35:40.063Z,12.74
2022-10-19T04:40:41.549Z,12.83
2022-10-19T04:45:43.054Z,12.59
2022-10-19T04:50:44.541Z,12.84
2022-10-19T04:55:54.609Z,12.80
2022-10-19T05:00:56.120Z,12.93
2022-10-19T05:05:59.180Z,12.36
2022-10-19T05:11:07.440Z,12.50
2022-10-19T05:16:12.317Z,12.59
2022-10-19T05:21:14.980Z,12.69
2022-10-19T05:26:18.525Z,12.77
2022-10-19T05:31:20.716Z,12.57
2022-10-19T05:36:27.406Z,12.69
2022-10-19T05:41:29.164Z,12.32
2022-10-19T05:46:31.332Z,12.53
2022-10-19T05:51:33.037Z,12.54
2022-10-19T05:56:34.688Z,12.45
2022-10-19T06:01:37.002Z,12.43
2022-10-19T06:06:38.531Z,12.73
2022-10-19T06:11:41.393Z,12.62
2022-10-19T06:16:42.925Z,12.70
2022-10-19T06:21:45.935Z,12.71
2022-10-19T06:26:47.727Z,12.82
2022-10-19T06:31:49.363Z,12.94
2022-10-19T06:36:50.862Z,12.85
2022-10-19T06:41:52.415Z,12.94
2022-10-19T06:46:53.935Z,13.05
2022-10-19T06:51:55.533Z,13.24
2022-10-19T06:56:57.088Z,13.14
2022-10-19T07:01:58.573Z,13.14
2022-10-19T07:07:00.061Z,13.07
2022-10-19T07:12:01.585Z,13.16
2022-10-19T07:17:03.117Z,13.10
2022-10-19T07:22:04.771Z,13.09
2022-10-19T07:27:06.293Z,13.27
2022-10-19T07:32:07.779Z,13.21
2022-10-19T07:37:09.252Z,13.16
2022-10-19T07:42:10.771Z,13.25
2022-10-19T07:47:12.371Z,13.08
2022-10-19T07:52:13.906Z,13.14
2022-10-19T07:57:15.982Z,13.12
2022-10-19T08:02:18.006Z,13.25
2022-10-19T08:07:19.534Z,13.25
2022-10-19T08:12:21.090Z,13.40
2022-10-19T08:17:22.592Z,13.27
2022-10-19T08:22:24.079Z,13.32
2022-10-19T08:27:25.667Z,13.20
2022-10-19T08:32:27.311Z,13.32
2022-10-19T08:37:40.802Z,13.56
2022-10-19T08:43:02.194Z,13.36
2022-10-19T08:48:14.439Z,13.35
2022-10-19T08:53:19.389Z,13.58
2022-10-19T08:58:27.605Z,13.64
2022-10-19T09:08:59.914Z,13.66
2022-10-19T09:14:13.248Z,13.84
2022-10-19T09:19:26.244Z,13.83
2022-10-19T09:24:36.636Z,13.76
2022-10-19T09:29:48.202Z,13.94
2022-10-19T09:35:02.391Z,13.95
2022-10-19T09:40:05.969Z,13.99
2022-10-19T09:45:16.487Z,14.08
2022-10-19T09:50:26.919Z,13.92
2022-10-19T09:55:44.889Z,13.94
2022-10-19T10:00:50.506Z,14.08
2022-10-19T10:05:52.722Z,14.23
2022-10-19T10:10:58.081Z,13.96
2022-10-19T10:16:01.558Z,13.96
2022-10-19T10:21:25.516Z,14.01
2022-10-19T10:26:28.238Z,13.88
2022-10-19T10:31:30.357Z,13.65
2022-10-19T10:36:32.029Z,13.83
2022-10-19T10:41:38.979Z,13.50
2022-10-19T10:46:50.805Z,13.36
2022-10-19T10:51:56.209Z,13.87
2022-10-19T10:57:13.993Z,13.95
2022-10-19T11:02:40.471Z,13.63
2022-10-19T11:07:45.075Z,13.54
2022-10-19T11:12:51.863Z,13.85
2022-10-19T11:18:16.972Z,13.38
2022-10-19T11:23:33.889Z,13.57
2022-10-19T11:29:03.041Z,13.64
2022-10-19T11:34:16.252Z,13.81
2022-10-19T11:39:40.913Z,13.61
2022-10-19T11:44:51.794Z,13.81
2022-10-19T11:49:53.198Z,13.70
2022-10-19T11:55:48.670Z,13.82
2022-10-19T12:01:02.483Z,13.62
2022-10-19T12:06:20.434Z,13.93
2022-10-19T12:12:00.358Z,13.96
2022-10-19T12:17:06.877Z,13.93
2022-10-19T12:22:15.437Z,14.07
2022-10-19T12:27:18.588Z,13.71
2022-10-19T12:32:23.058Z,13.54
2022-10-19T12:38:18.466Z,13.45
2022-10-19T12:43:27.890Z,13.57
2022-10-19T12:48:29.385Z,13.66
2022-10-19T12:53:38.227Z,13.68
2022-10-19T12:58:51.076Z,13.80
2022-10-19T13:04:12.121Z,13.77
2022-10-19T13:09:27.009Z,13.77
2022-10-19T13:14:50.228Z,13.77
2022-10-19T13:20:14.564Z,13.72
2022-10-19T13:25:16.054Z,13.70
2022-10-19T13:30:35.660Z,13.78
2022-10-19T13:35:37.151Z,13.90
2022-10-19T13:41:00.065Z,13.86
2022-10-19T13:46:13.961Z,13.88
2022-10-19T13:51:27.451Z,13.93
2022-10-19T13:56:42.044Z,13.82
2022-10-19T14:02:21.152Z,13.81
2022-10-19T14:07:26.664Z,13.82
2022-10-19T14:12:29.882Z,13.93
2022-10-19T14:17:42.310Z,13.91
2022-10-19T14:22:44.063Z,13.87
2022-10-19T14:27:46.637Z,13.82
2022-10-19T14:32:48.262Z,13.77
2022-10-19T14:37:50.145Z,13.79
2022-10-19T14:42:51.679Z,13.86
2022-10-19T14:48:01.950Z,13.71
2022-10-19T14:53:42.262Z,13.69
2022-10-19T14:58:54.304Z,13.67
2022-10-19T15:03:56.242Z,13.70
2022-10-19T15:09:04.344Z,13.62
2022-10-19T15:14:08.980Z,13.57
2022-10-19T15:19:26.435Z,13.54
2022-10-19T15:24:28.308Z,13.64
2022-10-19T15:29:29.957Z,13.48
2022-10-19T15:34:31.561Z,13.55
2022-10-19T15:39:41.022Z,13.47
2022-10-19T15:44:44.956Z,13.38
2022-10-19T15:49:46.918Z,13.50
2022-10-19T15:54:53.772Z,13.50
2022-10-19T15:59:57.019Z,13.37
2022-10-19T16:04:58.609Z,13.37
2022-10-19T16:10:00.161Z,13.36
2022-10-19T16:15:01.716Z,13.30
2022-10-19T16:20:03.787Z,13.25
2022-10-19T16:25:05.730Z,13.20
2022-10-19T16:30:07.987Z,13.05
2022-10-19T16:35:10.152Z,13.10
2022-10-19T16:40:11.779Z,12.95
2022-10-19T16:45:13.378Z,13.01
2022-10-19T16:50:15.125Z,13.01
2022-10-19T16:55:16.767Z,13.04
2022-10-19T17:00:18.361Z,12.85
2022-10-19T17:05:19.901Z,12.95
2022-10-19T17:10:21.591Z,12.80
2022-10-19T17:15:41.945Z,12.83
2022-10-19T17:20:44.351Z,12.68
2022-10-19T17:25:49.109Z,12.54
2022-10-19T17:30:52.301Z,12.65
2022-10-19T17:35:53.788Z,12.54
2022-10-19T17:40:55.351Z,12.37
2022-10-19T17:45:59.097Z,12.17
2022-10-19T17:51:06.214Z,12.35
2022-10-19T17:56:08.452Z,12.08
2022-10-19T18:01:11.178Z,12.09
2022-10-19T18:06:18.250Z,11.95
2022-10-19T18:11:22.583Z,11.96
2022-10-19T18:16:30.007Z,11.74
2022-10-19T18:21:34.433Z,11.88
2022-10-19T18:26:36.125Z,11.75
2022-10-19T18:31:38.529Z,11.66
2022-10-19T18:36:40.233Z,11.72
2022-10-19T18:41:41.794Z,11.93
2022-10-19T18:46:43.350Z,11.53
2022-10-19T18:51:50.639Z,11.66
2022-10-19T18:56:55.906Z,11.84
2022-10-19T19:01:57.470Z,11.76
2022-10-19T19:06:59.043Z,11.67
2022-10-19T19:12:01.138Z,11.40
2022-10-19T19:17:02.686Z,11.58
2022-10-19T19:22:08.645Z,11.33
2022-10-19T19:27:10.504Z,11.54
2022-10-19T19:32:12.023Z,11.46
2022-10-19T19:37:14.259Z,11.29
2022-10-19T19:42:16.321Z,11.00
2022-10-19T19:47:19.341Z,11.19
2022-10-19T19:52:20.904Z,10.95
2022-10-19T19:57:22.884Z,11.06
2022-10-19T20:02:24.390Z,11.11
2022-10-19T20:07:27.005Z,10.84
2022-10-19T20:12:29.256Z,10.69
2022-10-19T20:17:30.748Z,10.71
2022-10-19T20:22:32.305Z,10.58
2022-10-19T20:27:37.017Z,10.54
2022-10-19T20:32:38.925Z,10.58
2022-10-19T20:37:40.691Z,10.58
2022-10-19T20:42:43.852Z,10.62
2022-10-19T20:47:45.335Z,10.50
2022-10-19T20:52:46.852Z,10.66
2022-10-19T20:57:48.479Z,10.42
2022-10-19T21:02:50.111Z,10.27
2022-10-19T21:07:52.753Z,10.44
2022-10-19T21:12:54.256Z,10.18
2022-10-19T21:17:55.723Z,10.10
2022-10-19T21:22:58.153Z,9.88
2022-10-19T21:27:59.667Z,10.24
2022-10-19T21:33:01.200Z,10.04
2022-10-19T21:38:02.735Z,9.85
2022-10-19T21:43:04.642Z,9.95
2022-10-19T21:48:06.264Z,10.09
2022-10-19T21:53:07.780Z,10.19
2022-10-19T21:58:09.274Z,9.98
2022-10-19T22:03:10.967Z,9.75
2022-10-19T22:08:12.461Z,9.87
2022-10-19T22:13:14.062Z,9.75
2022-10-19T22:18:15.808Z,9.64
2022-10-19T22:23:17.435Z,9.52
2022-10-19T22:28:18.909Z,9.71
2022-10-19T22:33:20.941Z,9.62
2022-10-19T22:38:23.103Z,9.61
2022-10-19T22:43:24.627Z,9.45
2022-10-19T22:48:26.261Z,9.44
2022-10-19T22:53:27.781Z,9.38
2022-10-19T22:58:29.265Z,9.37
2022-10-19T23:03:30.864Z,9.14
2022-10-19T23:08:32.426Z,9.38
2022-10-19T23:13:33.964Z,9.36
2022-10-19T23:18:37.339Z,9.26
2022-10-19T23:23:39.342Z,9.28
2022-10-19T23:28:43.053Z,9.08
2022-10-19T23:33:44.737Z,9.17
2022-10-19T23:38:48.120Z,9.00
2022-10-19T23:43:49.604Z,9.09
2022-10-19T23:48:51.076Z,8.99
2022-10-19T23:53:53.303Z,8.87
2022-10-19T23:58:55.666Z,8.97
